Main page
METAR-TAF:

METAR-TAF

Airports :

Naval Station Rota

Rota, Spain

latitude: 36-39N, longitude: 006-21W, elevation: 26 m

Current weather observation

The report was made 20 minutes ago, at 10:00 UTC
Wind 5 kt from the Southwest, varying between South and Northwest
Temperature 23°C
Humidity 69%
Pressure 1017 hPa
Visibility 10 km or more
Scattered clouds at a height of 2500 ft
Broken clouds at a height of 3500 ft

METAR: LERT 161000Z 22005KT 180V310 9999 SCT025 BKN035 23/17 Q1017 NOSIG

Time: 12:20 (10:20 UTC)

Forecast

The report was made 2 hours and 20 minutes ago, at 08:00 UTC
Forecast valid from 16 at 09 UTC to 16 at 18 UTC
Wind 9 kt from the South/Southwest
Visibility 10 km or more
Scattered clouds at a height of 1500 ft

TAF: LERT 160800Z 1609/1618 21009KT 9999 SCT015

Weather observations and forecasts of more than 4000 airports (METAR and TAF reports).

The available stations are represented by yellow and red dots on the map.

Hover mouse over dot to see the name of the station.

Then click to see weather observations and forecasts.

To change the map : click on the green buttons with a black cross to zoom in, on the green button with a dash to zoom out, or on the green arrows for adjacent maps.


METAR-TAF: